P/v San Francisco — WDA3425 — position and weather

sailwx.info

Track history (hours):
 
Tides and Currents Weather Stations Pressure Air Temp Water Temp Dewpoint Dewpoint Depression Visibility Wind Speed Wind Dir Waves Ship Positions

P/v San Francisco

Owner: San Francisco Bar Pilots Benevolent and Protective, SAN FRANCISCO, CA. More information available from US FCC via Universal Licensing System and Coast Guard Vessel Documentation Center.

Last reported at 2018-Jul-13 15:19 UTC. Time now 2018-Jul-16 04:42 UTC.
Position N 37°48' W 122°24'.

Length 33 m.

Type: Pilot. MMSI: 366798310.

Date/timePositionNaut miles runAvg speedWind from/ knotsBaromVisibWave heightAir tempDewpointWater temp
2018-Jul-13 15:19N 37°48' W 122°24'0 0.0
2018-Jul-13 15:01N 37°48' W 122°24'1010.3
2018-Jul-13 14:00N 37°46' W 122°37'2 4.4
2018-Jul-13 13:30N 37°46' W 122°39'1 1.5
2018-Jul-13 13:00N 37°45' W 122°40'1 1.6
2018-Jul-13 12:30N 37°45' W 122°41'1 1.1
2018-Jul-13 12:00N 37°44' W 122°41'0 0.7
2018-Jul-13 11:30N 37°44' W 122°41'1 2.7
2018-Jul-13 11:00N 37°45' W 122°40'3 5.0
2018-Jul-13 10:30N 37°46' W 122°37'2 4.4
2018-Jul-13 10:00N 37°45' W 122°40'0 0.3
2018-Jul-13 09:30N 37°45' W 122°39'0 0.2
2018-Jul-13 09:00N 37°45' W 122°39'0 0.8
2018-Jul-13 08:30N 37°45' W 122°40'2 4.0
2018-Jul-13 08:00N 37°44' W 122°42'3 6.1
2018-Jul-13 07:30N 37°46' W 122°40'1 1.5
2018-Jul-13 07:00N 37°47' W 122°41'1 2.6
2018-Jul-13 06:30N 37°46' W 122°40'1 2.3
2018-Jul-13 06:00N 37°45' W 122°40'0 0.5
2018-Jul-13 05:30N 37°44' W 122°40'0 0.5
2018-Jul-13 05:00N 37°44' W 122°40'0 0.5
2018-Jul-13 04:30N 37°44' W 122°40'1 1.6
2018-Jul-13 04:01N 37°44' W 122°41'3 6.5
2018-Jul-13 03:30N 37°47' W 122°40'0 0.9
2018-Jul-13 03:00N 37°46' W 122°40'0 0.4
2018-Jul-13 02:30N 37°47' W 122°40'1 1.6
2018-Jul-13 02:00N 37°46' W 122°39'2 4.2
2018-Jul-13 01:30N 37°44' W 122°41'2 3.5
2018-Jul-13 01:00N 37°46' W 122°40'1 2.3
2018-Jul-13 00:30N 37°46' W 122°39'1 1.0
2018-Jul-13 00:00N 37°46' W 122°39'1 1.8
2018-Jul-12 23:31N 37°45' W 122°39'0 0.6
2018-Jul-12 23:00N 37°46' W 122°40'2 4.3
2018-Jul-12 22:30N 37°47' W 122°38'1 2.1
2018-Jul-12 22:00N 37°48' W 122°37'0 0.7
2018-Jul-12 21:30N 37°48' W 122°37'2 4.3
2018-Jul-12 21:01N 37°47' W 122°39'2 3.0
2018-Jul-12 20:30N 37°48' W 122°37'1 1.3
2018-Jul-12 20:00N 37°47' W 122°38'3 5.7
2018-Jul-12 19:31N 37°46' W 122°41'1 2.7
2018-Jul-12 19:00N 37°47' W 122°40'1 2.0
2018-Jul-12 18:30N 37°47' W 122°39'1 1.6
2018-Jul-12 18:00N 37°48' W 122°38'1 1.1
2018-Jul-12 17:31N 37°48' W 122°37'0 0.1
2018-Jul-12 17:00N 37°48' W 122°37'1 3.0
2018-Jul-12 16:30N 37°47' W 122°39'3 6.2
2018-Jul-12 16:00N 37°45' W 122°42'2 4.2
2018-Jul-12 15:30N 37°47' W 122°41'2 3.5
2018-Jul-12 15:00N 37°46' W 122°39'1 2.0
2018-Jul-12 14:30N 37°47' W 122°38'1 2.1
2018-Jul-12 14:00N 37°48' W 122°37'1 2.1
2018-Jul-12 13:30N 37°47' W 122°39'0 0.9
2018-Jul-12 13:00N 37°47' W 122°38'1 1.8
2018-Jul-12 12:28N 37°46' W 122°39'1 3.1
2018-Jul-12 12:00N 37°47' W 122°40'1 2.6
2018-Jul-12 11:31N 37°45' W 122°41'0 0.7
2018-Jul-12 10:59N 37°45' W 122°41'0 0.5
2018-Jul-12 10:30N 37°45' W 122°41'1 1.3
2018-Jul-12 10:00N 37°44' W 122°41'2 3.0
2018-Jul-12 09:29N 37°46' W 122°40'0 0.3
2018-Jul-12 09:00N 37°46' W 122°41'1 1.7
2018-Jul-12 08:30N 37°47' W 122°40'1 2.2
2018-Jul-12 08:00N 37°46' W 122°41'1 2.4
2018-Jul-12 07:30N 37°47' W 122°40'1 2.4
2018-Jul-12 07:00N 37°46' W 122°39'0 0.3
2018-Jul-12 06:30N 37°46' W 122°39'0 0.5
2018-Jul-12 06:01N 37°46' W 122°39'0 0.7
2018-Jul-12 05:30N 37°46' W 122°39'0 1.0
2018-Jul-12 05:00N 37°45' W 122°39'1 2.2
2018-Jul-12 04:30N 37°46' W 122°40'1 1.2
2018-Jul-12 04:00N 37°46' W 122°40'1 2.1
2018-Jul-12 03:30N 37°47' W 122°40'1 1.5
2018-Jul-12 03:00N 37°47' W 122°39'1 1.4
2018-Jul-12 02:30N 37°47' W 122°38'1 2.2
2018-Jul-12 02:00N 37°47' W 122°39'2 4.9
2018-Jul-12 01:30N 37°45' W 122°40'2 3.3
2018-Jul-12 00:59N 37°46' W 122°40'1 1.0
2018-Jul-12 00:25N 37°46' W 122°40'1 2.5
2018-Jul-12 00:00N 37°47' W 122°40'0 1.0
2018-Jul-11 23:30N 37°46' W 122°40'0 0.8
2018-Jul-11 23:01N 37°46' W 122°41'1 2.0
2018-Jul-11 22:21N 37°45' W 122°40'1 1.8
2018-Jul-11 22:00N 37°45' W 122°39'0 0.8
2018-Jul-11 21:28N 37°45' W 122°40'1 1.5
2018-Jul-11 21:00N 37°46' W 122°40'1 1.2
2018-Jul-11 20:30N 37°45' W 122°40'1 2.0
2018-Jul-11 20:00N 37°45' W 122°39'2 3.4
2018-Jul-11 19:30N 37°46' W 122°37'0 0.8
2018-Jul-11 19:00N 37°47' W 122°37'1 1.0
2018-Jul-11 18:30N 37°46' W 122°38'3 4.6
2018-Jul-11 17:56N 37°46' W 122°41'2 3.5
2018-Jul-11 17:30N 37°48' W 122°41'1 1.9
2018-Jul-11 17:00N 37°48' W 122°40'1 2.3
2018-Jul-11 16:30N 37°47' W 122°39'1 2.4
2018-Jul-11 16:00N 37°46' W 122°38'3 5.1
2018-Jul-11 15:30N 37°45' W 122°40'2 3.4
2018-Jul-11 15:01N 37°46' W 122°41'2 3.1
2018-Jul-11 14:30N 37°47' W 122°39'1 2.1
2018-Jul-11 14:00N 37°46' W 122°40'1 2.7
2018-Jul-11 13:31N 37°47' W 122°38'0 0.8
2018-Jul-11 13:01N 37°46' W 122°39'1 1.4
2018-Jul-11 12:31N 37°46' W 122°39'1 2.4
2018-Jul-11 12:00N 37°46' W 122°41'0 0.3
2018-Jul-11 11:30N 37°46' W 122°41'1 1.8
2018-Jul-11 11:00N 37°46' W 122°42'0 0.9
2018-Jul-11 10:30N 37°45' W 122°42'0 0.8
2018-Jul-11 09:53N 37°45' W 122°41'0 1.0
2018-Jul-11 09:30N 37°44' W 122°41'1 1.4
2018-Jul-11 08:51N 37°45' W 122°41'1 2.3
2018-Jul-11 08:28N 37°45' W 122°40'1 2.5
2018-Jul-11 08:00N 37°46' W 122°40'1 1.1
2018-Jul-11 07:29N 37°46' W 122°40'1 1.8
2018-Jul-11 07:00N 37°45' W 122°40'1 1.5
2018-Jul-11 06:30N 37°45' W 122°39'1 2.7
2018-Jul-11 06:00N 37°45' W 122°40'0 0.9
2018-Jul-11 05:30N 37°46' W 122°40'1 1.2
2018-Jul-11 05:00N 37°46' W 122°39'0 0.8
2018-Jul-11 04:31N 37°46' W 122°39'0 0.8
2018-Jul-11 04:00N 37°46' W 122°40'1 1.7
2018-Jul-11 03:30N 37°46' W 122°41'1 2.4
2018-Jul-11 03:00N 37°45' W 122°40'1 2.5
2018-Jul-11 02:30N 37°46' W 122°38'1 2.8
2018-Jul-11 02:00N 37°45' W 122°40'1 2.7
2018-Jul-11 01:30N 37°46' W 122°38'1 1.8
2018-Jul-11 01:00N 37°45' W 122°38'2 3.1
2018-Jul-11 00:31N 37°46' W 122°40'1 2.0
2018-Jul-11 00:00N 37°47' W 122°40'1 2.1
2018-Jul-10 23:30N 37°46' W 122°41'1 2.0
2018-Jul-10 23:01N 37°45' W 122°41'1 1.4
2018-Jul-10 22:30N 37°45' W 122°40'1 1.2
2018-Jul-10 22:00N 37°44' W 122°41'2 3.9
2018-Jul-10 21:24N 37°45' W 122°44'1 1.4
2018-Jul-10 20:59N 37°45' W 122°43'1 2.0
2018-Jul-10 20:29N 37°45' W 122°42'1 2.1
2018-Jul-10 20:00N 37°45' W 122°40'0 0.3
2018-Jul-10 19:30N 37°45' W 122°40'1 1.7
2018-Jul-10 19:00N 37°46' W 122°40'0 0.7
2018-Jul-10 18:29N 37°46' W 122°40'1 1.6
2018-Jul-10 18:00N 37°46' W 122°39'0 0.8
2018-Jul-10 17:30N 37°46' W 122°39'0 1.0
2018-Jul-10 17:01N 37°45' W 122°39'1 1.2
2018-Jul-10 16:26N 37°44' W 122°39'1 2.9
2018-Jul-10 16:00N 37°44' W 122°40'1 3.0
2018-Jul-10 15:30N 37°45' W 122°42'3 5.1
2018-Jul-10 15:00N 37°47' W 122°39'1 3.0
2018-Jul-10 14:30N 37°47' W 122°41'1 2.3
2018-Jul-10 14:00N 37°46' W 122°41'1 2.6
2018-Jul-10 13:30N 37°46' W 122°39'2 3.0
2018-Jul-10 13:00N 37°47' W 122°40'1 1.8
2018-Jul-10 12:30N 37°47' W 122°40'1 1.5
2018-Jul-10 12:01N 37°46' W 122°40'2 3.3
2018-Jul-10 11:30N 37°45' W 122°42'1 2.0
2018-Jul-10 11:00N 37°45' W 122°41'1 1.6
2018-Jul-10 10:30N 37°45' W 122°40'1 1.8
2018-Jul-10 10:01N 37°46' W 122°39'1 2.5
2018-Jul-10 09:30N 37°46' W 122°38'2 4.6
2018-Jul-10 09:00N 37°44' W 122°40'1 1.3
2018-Jul-10 08:30N 37°44' W 122°40'1 1.9
2018-Jul-10 08:00N 37°43' W 122°39'1 1.3
2018-Jul-10 07:29N 37°43' W 122°38'1 1.8
2018-Jul-10 07:00N 37°44' W 122°39'2 3.8
2018-Jul-10 06:30N 37°45' W 122°41'2 3.8
2018-Jul-10 06:00N 37°45' W 122°43'1 1.1
2018-Jul-10 05:25N 37°45' W 122°44'1 2.7
2018-Jul-10 04:59N 37°45' W 122°43'1 2.5
2018-Jul-10 04:30N 37°44' W 122°41'0 0.5
2018-Jul-10 03:59N 37°44' W 122°41'2 3.4
2018-Jul-10 03:30N 37°44' W 122°39'1 2.8
2018-Jul-10 03:00N 37°45' W 122°38'0 0.3
2018-Jul-10 02:29N 37°45' W 122°38'2 3.4
2018-Jul-10 01:59N 37°46' W 122°39'0 1.0
2018-Jul-10 01:30N 37°46' W 122°39'1 1.4
2018-Jul-10 01:00N 37°47' W 122°38'1 2.0
2018-Jul-10 00:30N 37°47' W 122°39'1 1.8
2018-Jul-10 00:00N 37°46' W 122°39'1 2.2
2018-Jul-09 23:30N 37°46' W 122°38'3 5.5
2018-Jul-09 23:00N 37°45' W 122°41'2 3.5
2018-Jul-09 22:30N 37°46' W 122°43'1 2.0
2018-Jul-09 22:00N 37°46' W 122°42'1 2.0
2018-Jul-09 21:30N 37°45' W 122°41'0 0.5
2018-Jul-09 21:00N 37°45' W 122°41'0 0.8
2018-Jul-09 20:30N 37°45' W 122°41'1 2.7
2018-Jul-09 20:00N 37°45' W 122°43'1 2.1
2018-Jul-09 19:30N 37°44' W 122°42'1 1.4
2018-Jul-09 19:00N 37°44' W 122°41'1 1.7
2018-Jul-09 18:26N 37°44' W 122°40'1 2.5
2018-Jul-09 18:00N 37°45' W 122°39'1 2.6
2018-Jul-09 17:30N 37°45' W 122°38'1 2.0
2018-Jul-09 16:57N 37°46' W 122°39'1 2.2
2018-Jul-09 16:30N 37°47' W 122°39'1 2.0
2018-Jul-09 16:00N 37°47' W 122°38'1 1.7
2018-Jul-09 15:30N 37°46' W 122°39'1 1.2
2018-Jul-09 15:00N 37°47' W 122°40'1 1.5
2018-Jul-09 14:30N 37°47' W 122°39'1 1.7
2018-Jul-09 14:00N 37°47' W 122°40'2 3.7
2018-Jul-09 13:31N 37°47' W 122°42'1 2.6
2018-Jul-09 13:01N 37°46' W 122°41'1 2.7
2018-Jul-09 12:30N 37°45' W 122°40'1 2.6
2018-Jul-09 12:00N 37°45' W 122°41'1 1.4
2018-Jul-09 11:31N 37°45' W 122°41'1 1.7
2018-Jul-09 11:00N 37°46' W 122°41'1 1.5
2018-Jul-09 10:29N 37°45' W 122°42'1 1.3
2018-Jul-09 10:00N 37°45' W 122°41'1 1.4
2018-Jul-09 09:30N 37°45' W 122°40'1 1.0
2018-Jul-09 08:51N 37°45' W 122°41'1 2.3
2018-Jul-09 08:30N 37°45' W 122°40'1 1.3
2018-Jul-09 08:00N 37°45' W 122°39'2 4.0
2018-Jul-09 07:30N 37°47' W 122°41'1 1.9
2018-Jul-09 07:00N 37°47' W 122°42'1 1.9
2018-Jul-09 06:30N 37°47' W 122°41'1 1.8
2018-Jul-09 06:00N 37°46' W 122°40'1 1.7
2018-Jul-09 05:30N 37°46' W 122°39'1 1.7
2018-Jul-09 05:00N 37°45' W 122°38'1 1.2
2018-Jul-09 04:29N 37°45' W 122°39'1 1.8
2018-Jul-09 04:00N 37°45' W 122°40'4 9.0
2018-Jul-09 03:30N 37°47' W 122°34'611.1
2018-Jul-09 03:00N 37°49' W 122°28'3 6.5
2018-Jul-09 02:30N 37°48' W 122°24'0 0.0
2018-Jul-09 02:00N 37°48' W 122°24'4 7.3
2018-Jul-09 01:31N 37°49' W 122°28'715.0
2018-Jul-09 01:01N 37°46' W 122°37'2 3.6
2018-Jul-09 00:30N 37°45' W 122°39'2 4.7
2018-Jul-08 23:59N 37°44' W 122°42'2 4.9
2018-Jul-08 23:30N 37°45' W 122°39'2 3.1
2018-Jul-08 23:00N 37°46' W 122°40'1 2.7
2018-Jul-08 22:30N 37°45' W 122°41'1 2.0
2018-Jul-08 22:00N 37°44' W 122°41'1 1.3
2018-Jul-08 21:30N 37°44' W 122°41'1 1.9
2018-Jul-08 21:00N 37°45' W 122°40'1 1.4
2018-Jul-08 20:30N 37°45' W 122°41'1 1.7
2018-Jul-08 19:59N 37°46' W 122°42'3 5.7
2018-Jul-08 19:29N 37°45' W 122°38'1 2.8
2018-Jul-08 19:00N 37°46' W 122°40'1 1.3
2018-Jul-08 18:29N 37°46' W 122°40'1 1.9
2018-Jul-08 18:00N 37°46' W 122°39'1 1.0
2018-Jul-08 17:30N 37°47' W 122°40'0 0.4
2018-Jul-08 17:00N 37°46' W 122°40'1 2.0
2018-Jul-08 16:30N 37°46' W 122°39'1 2.2
2018-Jul-08 16:00N 37°45' W 122°38'1 1.9
2018-Jul-08 15:28N 37°45' W 122°39'1 2.0
2018-Jul-08 15:00N 37°45' W 122°40'1 1.7
2018-Jul-08 14:30N 37°46' W 122°40'1 2.4
2018-Jul-08 14:01N 37°47' W 122°40'2 3.3
2018-Jul-08 13:31N 37°45' W 122°38'1 2.0
2018-Jul-08 13:01N 37°45' W 122°39'1 2.5
2018-Jul-08 12:29N 37°45' W 122°41'2 4.6
2018-Jul-08 12:00N 37°47' W 122°40'2 3.0
2018-Jul-08 11:31N 37°45' W 122°39'1 1.1
2018-Jul-08 11:00N 37°45' W 122°40'1 1.0
2018-Jul-08 10:30N 37°45' W 122°40'1 2.2
2018-Jul-08 10:00N 37°46' W 122°40'0 0.9
2018-Jul-08 09:30N 37°46' W 122°40'2 3.1
2018-Jul-08 09:00N 37°47' W 122°42'1 2.5
2018-Jul-08 08:30N 37°46' W 122°41'2 3.9
2018-Jul-08 08:00N 37°45' W 122°39'1 2.2
2018-Jul-08 07:30N 37°46' W 122°40'3 5.7
2018-Jul-08 07:00N 37°46' W 122°36'612.4
2018-Jul-08 06:31N 37°49' W 122°29'4 8.6
2018-Jul-08 06:00N 37°48' W 122°24'0 0.1
2018-Jul-08 05:31N 37°48' W 122°24'5 9.3
2018-Jul-08 05:00N 37°48' W 122°30'611.5
2018-Jul-08 04:30N 37°46' W 122°36'3 6.0
2018-Jul-08 04:00N 37°47' W 122°40'1 1.8
2018-Jul-08 03:30N 37°47' W 122°41'1 2.2
2018-Jul-08 03:00N 37°46' W 122°40'1 1.2
2018-Jul-08 02:30N 37°46' W 122°40'1 1.1
2018-Jul-08 01:59N 37°46' W 122°40'3 5.6
2018-Jul-08 01:30N 37°46' W 122°37'3 5.2
2018-Jul-08 01:00N 37°47' W 122°34'1 1.6
2018-Jul-08 00:31N 37°47' W 122°35'4 7.0
2018-Jul-08 00:00N 37°46' W 122°39'0 0.4
2018-Jul-07 23:30N 37°46' W 122°39'1 1.0
2018-Jul-07 23:00N 37°46' W 122°40'0 0.8
2018-Jul-07 22:30N 37°46' W 122°40'1 1.2
2018-Jul-07 22:00N 37°46' W 122°39'1 1.9
2018-Jul-07 21:30N 37°45' W 122°39'0 0.9
2018-Jul-07 21:00N 37°45' W 122°39'1 2.3
2018-Jul-07 20:29N 37°46' W 122°41'1 2.4
2018-Jul-07 20:00N 37°45' W 122°41'1 1.2
2018-Jul-07 19:28N 37°45' W 122°41'4 8.1
2018-Jul-07 19:00N 37°46' W 122°37'510.6
2018-Jul-07 18:30N 37°48' W 122°31'611.4
2018-Jul-07 18:00N 37°48' W 122°24'0 0.5
2018-Jul-07 17:30N 37°48' W 122°24'0 0.0
2018-Jul-07 17:00N 37°48' W 122°24'0 0.0
2018-Jul-07 16:30N 37°48' W 122°24'0 0.0
2018-Jul-07 15:59N 37°48' W 122°24'0 0.0
2018-Jul-07 15:30N 37°48' W 122°24'0 0.0
2018-Jul-06 19:04N 37°48' W 122°24'0 0.0
2018-Jul-06 19:00N 37°48' W 122°24'4 7.1
2018-Jul-06 18:30N 37°45' W 122°21'4 7.2
2018-Jul-06 18:00N 37°48' W 122°24'0 0.0
2018-Jul-06 17:30N 37°48' W 122°24'  
Track history (hours):
 
Tides and Currents Weather Stations Pressure Air Temp Water Temp Dewpoint Dewpoint Depression Visibility Wind Speed Wind Dir Waves Ship Positions

P/v San Francisco

Owner: San Francisco Bar Pilots Benevolent and Protective, SAN FRANCISCO, CA. More information available from US FCC via Universal Licensing System and Coast Guard Vessel Documentation Center.

Last reported at 2018-Jul-13 15:19 UTC. Time now 2018-Jul-16 04:42 UTC.
Position N 37°48' W 122°24'.

Length 33 m.

Type: Pilot. MMSI: 366798310.

Date/timePositionNaut miles runAvg speedWind from/ knotsBaromVisibWave heightAir tempDewpointWater temp
2018-Jul-13 15:19N 37°48' W 122°24'0 0.0
2018-Jul-13 15:01N 37°48' W 122°24'1010.3
2018-Jul-13 14:00N 37°46' W 122°37'2 4.4
2018-Jul-13 13:30N 37°46' W 122°39'1 1.5
2018-Jul-13 13:00N 37°45' W 122°40'1 1.6
2018-Jul-13 12:30N 37°45' W 122°41'1 1.1
2018-Jul-13 12:00N 37°44' W 122°41'0 0.7
2018-Jul-13 11:30N 37°44' W 122°41'1 2.7
2018-Jul-13 11:00N 37°45' W 122°40'3 5.0
2018-Jul-13 10:30N 37°46' W 122°37'2 4.4
2018-Jul-13 10:00N 37°45' W 122°40'0 0.3
2018-Jul-13 09:30N 37°45' W 122°39'0 0.2
2018-Jul-13 09:00N 37°45' W 122°39'0 0.8
2018-Jul-13 08:30N 37°45' W 122°40'2 4.0
2018-Jul-13 08:00N 37°44' W 122°42'3 6.1
2018-Jul-13 07:30N 37°46' W 122°40'1 1.5
2018-Jul-13 07:00N 37°47' W 122°41'1 2.6
2018-Jul-13 06:30N 37°46' W 122°40'1 2.3
2018-Jul-13 06:00N 37°45' W 122°40'0 0.5
2018-Jul-13 05:30N 37°44' W 122°40'0 0.5
2018-Jul-13 05:00N 37°44' W 122°40'0 0.5
2018-Jul-13 04:30N 37°44' W 122°40'1 1.6
2018-Jul-13 04:01N 37°44' W 122°41'3 6.5
2018-Jul-13 03:30N 37°47' W 122°40'0 0.9
2018-Jul-13 03:00N 37°46' W 122°40'0 0.4
2018-Jul-13 02:30N 37°47' W 122°40'1 1.6
2018-Jul-13 02:00N 37°46' W 122°39'2 4.2
2018-Jul-13 01:30N 37°44' W 122°41'2 3.5
2018-Jul-13 01:00N 37°46' W 122°40'1 2.3
2018-Jul-13 00:30N 37°46' W 122°39'1 1.0
2018-Jul-13 00:00N 37°46' W 122°39'1 1.8
2018-Jul-12 23:31N 37°45' W 122°39'0 0.6
2018-Jul-12 23:00N 37°46' W 122°40'2 4.3
2018-Jul-12 22:30N 37°47' W 122°38'1 2.1
2018-Jul-12 22:00N 37°48' W 122°37'0 0.7
2018-Jul-12 21:30N 37°48' W 122°37'2 4.3
2018-Jul-12 21:01N 37°47' W 122°39'2 3.0
2018-Jul-12 20:30N 37°48' W 122°37'1 1.3
2018-Jul-12 20:00N 37°47' W 122°38'3 5.7
2018-Jul-12 19:31N 37°46' W 122°41'1 2.7
2018-Jul-12 19:00N 37°47' W 122°40'1 2.0
2018-Jul-12 18:30N 37°47' W 122°39'1 1.6
2018-Jul-12 18:00N 37°48' W 122°38'1 1.1
2018-Jul-12 17:31N 37°48' W 122°37'0 0.1
2018-Jul-12 17:00N 37°48' W 122°37'1 3.0
2018-Jul-12 16:30N 37°47' W 122°39'3 6.2
2018-Jul-12 16:00N 37°45' W 122°42'2 4.2
2018-Jul-12 15:30N 37°47' W 122°41'2 3.5
2018-Jul-12 15:00N 37°46' W 122°39'1 2.0
2018-Jul-12 14:30N 37°47' W 122°38'1 2.1
2018-Jul-12 14:00N 37°48' W 122°37'1 2.1
2018-Jul-12 13:30N 37°47' W 122°39'0 0.9
2018-Jul-12 13:00N 37°47' W 122°38'1 1.8
2018-Jul-12 12:28N 37°46' W 122°39'1 3.1
2018-Jul-12 12:00N 37°47' W 122°40'1 2.6
2018-Jul-12 11:31N 37°45' W 122°41'0 0.7
2018-Jul-12 10:59N 37°45' W 122°41'0 0.5
2018-Jul-12 10:30N 37°45' W 122°41'1 1.3
2018-Jul-12 10:00N 37°44' W 122°41'2 3.0
2018-Jul-12 09:29N 37°46' W 122°40'0 0.3
2018-Jul-12 09:00N 37°46' W 122°41'1 1.7
2018-Jul-12 08:30N 37°47' W 122°40'1 2.2
2018-Jul-12 08:00N 37°46' W 122°41'1 2.4
2018-Jul-12 07:30N 37°47' W 122°40'1 2.4
2018-Jul-12 07:00N 37°46' W 122°39'0 0.3
2018-Jul-12 06:30N 37°46' W 122°39'0 0.5
2018-Jul-12 06:01N 37°46' W 122°39'0 0.7
2018-Jul-12 05:30N 37°46' W 122°39'0 1.0
2018-Jul-12 05:00N 37°45' W 122°39'1 2.2
2018-Jul-12 04:30N 37°46' W 122°40'1 1.2
2018-Jul-12 04:00N 37°46' W 122°40'1 2.1
2018-Jul-12 03:30N 37°47' W 122°40'1 1.5
2018-Jul-12 03:00N 37°47' W 122°39'1 1.4
2018-Jul-12 02:30N 37°47' W 122°38'1 2.2
2018-Jul-12 02:00N 37°47' W 122°39'2 4.9
2018-Jul-12 01:30N 37°45' W 122°40'2 3.3
2018-Jul-12 00:59N 37°46' W 122°40'1 1.0
2018-Jul-12 00:25N 37°46' W 122°40'1 2.5
2018-Jul-12 00:00N 37°47' W 122°40'0 1.0
2018-Jul-11 23:30N 37°46' W 122°40'0 0.8
2018-Jul-11 23:01N 37°46' W 122°41'1 2.0
2018-Jul-11 22:21N 37°45' W 122°40'1 1.8
2018-Jul-11 22:00N 37°45' W 122°39'0 0.8
2018-Jul-11 21:28N 37°45' W 122°40'1 1.5
2018-Jul-11 21:00N 37°46' W 122°40'1 1.2
2018-Jul-11 20:30N 37°45' W 122°40'1 2.0
2018-Jul-11 20:00N 37°45' W 122°39'2 3.4
2018-Jul-11 19:30N 37°46' W 122°37'0 0.8
2018-Jul-11 19:00N 37°47' W 122°37'1 1.0
2018-Jul-11 18:30N 37°46' W 122°38'3 4.6
2018-Jul-11 17:56N 37°46' W 122°41'2 3.5
2018-Jul-11 17:30N 37°48' W 122°41'1 1.9
2018-Jul-11 17:00N 37°48' W 122°40'1 2.3
2018-Jul-11 16:30N 37°47' W 122°39'1 2.4
2018-Jul-11 16:00N 37°46' W 122°38'3 5.1
2018-Jul-11 15:30N 37°45' W 122°40'2 3.4
2018-Jul-11 15:01N 37°46' W 122°41'2 3.1
2018-Jul-11 14:30N 37°47' W 122°39'1 2.1
2018-Jul-11 14:00N 37°46' W 122°40'1 2.7
2018-Jul-11 13:31N 37°47' W 122°38'0 0.8
2018-Jul-11 13:01N 37°46' W 122°39'1 1.4
2018-Jul-11 12:31N 37°46' W 122°39'1 2.4
2018-Jul-11 12:00N 37°46' W 122°41'0 0.3
2018-Jul-11 11:30N 37°46' W 122°41'1 1.8
2018-Jul-11 11:00N 37°46' W 122°42'0 0.9
2018-Jul-11 10:30N 37°45' W 122°42'0 0.8
2018-Jul-11 09:53N 37°45' W 122°41'0 1.0
2018-Jul-11 09:30N 37°44' W 122°41'1 1.4
2018-Jul-11 08:51N 37°45' W 122°41'1 2.3
2018-Jul-11 08:28N 37°45' W 122°40'1 2.5
2018-Jul-11 08:00N 37°46' W 122°40'1 1.1
2018-Jul-11 07:29N 37°46' W 122°40'1 1.8
2018-Jul-11 07:00N 37°45' W 122°40'1 1.5
2018-Jul-11 06:30N 37°45' W 122°39'1 2.7
2018-Jul-11 06:00N 37°45' W 122°40'0 0.9
2018-Jul-11 05:30N 37°46' W 122°40'1 1.2
2018-Jul-11 05:00N 37°46' W 122°39'0 0.8
2018-Jul-11 04:31N 37°46' W 122°39'0 0.8
2018-Jul-11 04:00N 37°46' W 122°40'1 1.7
2018-Jul-11 03:30N 37°46' W 122°41'1 2.4
2018-Jul-11 03:00N 37°45' W 122°40'1 2.5
2018-Jul-11 02:30N 37°46' W 122°38'1 2.8
2018-Jul-11 02:00N 37°45' W 122°40'1 2.7
2018-Jul-11 01:30N 37°46' W 122°38'1 1.8
2018-Jul-11 01:00N 37°45' W 122°38'2 3.1
2018-Jul-11 00:31N 37°46' W 122°40'1 2.0
2018-Jul-11 00:00N 37°47' W 122°40'1 2.1
2018-Jul-10 23:30N 37°46' W 122°41'1 2.0
2018-Jul-10 23:01N 37°45' W 122°41'1 1.4
2018-Jul-10 22:30N 37°45' W 122°40'1 1.2
2018-Jul-10 22:00N 37°44' W 122°41'2 3.9
2018-Jul-10 21:24N 37°45' W 122°44'1 1.4
2018-Jul-10 20:59N 37°45' W 122°43'1 2.0
2018-Jul-10 20:29N 37°45' W 122°42'1 2.1
2018-Jul-10 20:00N 37°45' W 122°40'0 0.3
2018-Jul-10 19:30N 37°45' W 122°40'1 1.7
2018-Jul-10 19:00N 37°46' W 122°40'0 0.7
2018-Jul-10 18:29N 37°46' W 122°40'1 1.6
2018-Jul-10 18:00N 37°46' W 122°39'0 0.8
2018-Jul-10 17:30N 37°46' W 122°39'0 1.0
2018-Jul-10 17:01N 37°45' W 122°39'1 1.2
2018-Jul-10 16:26N 37°44' W 122°39'1 2.9
2018-Jul-10 16:00N 37°44' W 122°40'1 3.0
2018-Jul-10 15:30N 37°45' W 122°42'3 5.1
2018-Jul-10 15:00N 37°47' W 122°39'1 3.0
2018-Jul-10 14:30N 37°47' W 122°41'1 2.3
2018-Jul-10 14:00N 37°46' W 122°41'1 2.6
2018-Jul-10 13:30N 37°46' W 122°39'2 3.0
2018-Jul-10 13:00N 37°47' W 122°40'1 1.8
2018-Jul-10 12:30N 37°47' W 122°40'1 1.5
2018-Jul-10 12:01N 37°46' W 122°40'2 3.3
2018-Jul-10 11:30N 37°45' W 122°42'1 2.0
2018-Jul-10 11:00N 37°45' W 122°41'1 1.6
2018-Jul-10 10:30N 37°45' W 122°40'1 1.8
2018-Jul-10 10:01N 37°46' W 122°39'1 2.5
2018-Jul-10 09:30N 37°46' W 122°38'2 4.6
2018-Jul-10 09:00N 37°44' W 122°40'1 1.3
2018-Jul-10 08:30N 37°44' W 122°40'1 1.9
2018-Jul-10 08:00N 37°43' W 122°39'1 1.3
2018-Jul-10 07:29N 37°43' W 122°38'1 1.8
2018-Jul-10 07:00N 37°44' W 122°39'2 3.8
2018-Jul-10 06:30N 37°45' W 122°41'2 3.8
2018-Jul-10 06:00N 37°45' W 122°43'1 1.1
2018-Jul-10 05:25N 37°45' W 122°44'1 2.7
2018-Jul-10 04:59N 37°45' W 122°43'1 2.5
2018-Jul-10 04:30N 37°44' W 122°41'0 0.5
2018-Jul-10 03:59N 37°44' W 122°41'2 3.4
2018-Jul-10 03:30N 37°44' W 122°39'1 2.8
2018-Jul-10 03:00N 37°45' W 122°38'0 0.3
2018-Jul-10 02:29N 37°45' W 122°38'2 3.4
2018-Jul-10 01:59N 37°46' W 122°39'0 1.0
2018-Jul-10 01:30N 37°46' W 122°39'1 1.4
2018-Jul-10 01:00N 37°47' W 122°38'1 2.0
2018-Jul-10 00:30N 37°47' W 122°39'1 1.8
2018-Jul-10 00:00N 37°46' W 122°39'1 2.2
2018-Jul-09 23:30N 37°46' W 122°38'3 5.5
2018-Jul-09 23:00N 37°45' W 122°41'2 3.5
2018-Jul-09 22:30N 37°46' W 122°43'1 2.0
2018-Jul-09 22:00N 37°46' W 122°42'1 2.0
2018-Jul-09 21:30N 37°45' W 122°41'0 0.5
2018-Jul-09 21:00N 37°45' W 122°41'0 0.8
2018-Jul-09 20:30N 37°45' W 122°41'1 2.7
2018-Jul-09 20:00N 37°45' W 122°43'1 2.1
2018-Jul-09 19:30N 37°44' W 122°42'1 1.4
2018-Jul-09 19:00N 37°44' W 122°41'1 1.7
2018-Jul-09 18:26N 37°44' W 122°40'1 2.5
2018-Jul-09 18:00N 37°45' W 122°39'1 2.6
2018-Jul-09 17:30N 37°45' W 122°38'1 2.0
2018-Jul-09 16:57N 37°46' W 122°39'1 2.2
2018-Jul-09 16:30N 37°47' W 122°39'1 2.0
2018-Jul-09 16:00N 37°47' W 122°38'1 1.7
2018-Jul-09 15:30N 37°46' W 122°39'1 1.2
2018-Jul-09 15:00N 37°47' W 122°40'1 1.5
2018-Jul-09 14:30N 37°47' W 122°39'1 1.7
2018-Jul-09 14:00N 37°47' W 122°40'2 3.7
2018-Jul-09 13:31N 37°47' W 122°42'1 2.6
2018-Jul-09 13:01N 37°46' W 122°41'1 2.7
2018-Jul-09 12:30N 37°45' W 122°40'1 2.6
2018-Jul-09 12:00N 37°45' W 122°41'1 1.4
2018-Jul-09 11:31N 37°45' W 122°41'1 1.7
2018-Jul-09 11:00N 37°46' W 122°41'1 1.5
2018-Jul-09 10:29N 37°45' W 122°42'1 1.3
2018-Jul-09 10:00N 37°45' W 122°41'1 1.4
2018-Jul-09 09:30N 37°45' W 122°40'1 1.0
2018-Jul-09 08:51N 37°45' W 122°41'1 2.3
2018-Jul-09 08:30N 37°45' W 122°40'1 1.3
2018-Jul-09 08:00N 37°45' W 122°39'2 4.0
2018-Jul-09 07:30N 37°47' W 122°41'1 1.9
2018-Jul-09 07:00N 37°47' W 122°42'1 1.9
2018-Jul-09 06:30N 37°47' W 122°41'1 1.8
2018-Jul-09 06:00N 37°46' W 122°40'1 1.7
2018-Jul-09 05:30N 37°46' W 122°39'1 1.7
2018-Jul-09 05:00N 37°45' W 122°38'1 1.2
2018-Jul-09 04:29N 37°45' W 122°39'1 1.8
2018-Jul-09 04:00N 37°45' W 122°40'4 9.0
2018-Jul-09 03:30N 37°47' W 122°34'611.1
2018-Jul-09 03:00N 37°49' W 122°28'3 6.5
2018-Jul-09 02:30N 37°48' W 122°24'0 0.0
2018-Jul-09 02:00N 37°48' W 122°24'4 7.3
2018-Jul-09 01:31N 37°49' W 122°28'715.0
2018-Jul-09 01:01N 37°46' W 122°37'2 3.6
2018-Jul-09 00:30N 37°45' W 122°39'2 4.7
2018-Jul-08 23:59N 37°44' W 122°42'2 4.9
2018-Jul-08 23:30N 37°45' W 122°39'2 3.1
2018-Jul-08 23:00N 37°46' W 122°40'1 2.7
2018-Jul-08 22:30N 37°45' W 122°41'1 2.0
2018-Jul-08 22:00N 37°44' W 122°41'1 1.3
2018-Jul-08 21:30N 37°44' W 122°41'1 1.9
2018-Jul-08 21:00N 37°45' W 122°40'1 1.4
2018-Jul-08 20:30N 37°45' W 122°41'1 1.7
2018-Jul-08 19:59N 37°46' W 122°42'3 5.7
2018-Jul-08 19:29N 37°45' W 122°38'1 2.8
2018-Jul-08 19:00N 37°46' W 122°40'1 1.3
2018-Jul-08 18:29N 37°46' W 122°40'1 1.9
2018-Jul-08 18:00N 37°46' W 122°39'1 1.0
2018-Jul-08 17:30N 37°47' W 122°40'0 0.4
2018-Jul-08 17:00N 37°46' W 122°40'1 2.0
2018-Jul-08 16:30N 37°46' W 122°39'1 2.2
2018-Jul-08 16:00N 37°45' W 122°38'1 1.9
2018-Jul-08 15:28N 37°45' W 122°39'1 2.0
2018-Jul-08 15:00N 37°45' W 122°40'1 1.7
2018-Jul-08 14:30N 37°46' W 122°40'1 2.4
2018-Jul-08 14:01N 37°47' W 122°40'2 3.3
2018-Jul-08 13:31N 37°45' W 122°38'1 2.0
2018-Jul-08 13:01N 37°45' W 122°39'1 2.5
2018-Jul-08 12:29N 37°45' W 122°41'2 4.6
2018-Jul-08 12:00N 37°47' W 122°40'2 3.0
2018-Jul-08 11:31N 37°45' W 122°39'1 1.1
2018-Jul-08 11:00N 37°45' W 122°40'1 1.0
2018-Jul-08 10:30N 37°45' W 122°40'1 2.2
2018-Jul-08 10:00N 37°46' W 122°40'0 0.9
2018-Jul-08 09:30N 37°46' W 122°40'2 3.1
2018-Jul-08 09:00N 37°47' W 122°42'1 2.5
2018-Jul-08 08:30N 37°46' W 122°41'2 3.9
2018-Jul-08 08:00N 37°45' W 122°39'1 2.2
2018-Jul-08 07:30N 37°46' W 122°40'3 5.7
2018-Jul-08 07:00N 37°46' W 122°36'612.4
2018-Jul-08 06:31N 37°49' W 122°29'4 8.6
2018-Jul-08 06:00N 37°48' W 122°24'0 0.1
2018-Jul-08 05:31N 37°48' W 122°24'5 9.3
2018-Jul-08 05:00N 37°48' W 122°30'611.5
2018-Jul-08 04:30N 37°46' W 122°36'3 6.0
2018-Jul-08 04:00N 37°47' W 122°40'1 1.8
2018-Jul-08 03:30N 37°47' W 122°41'1 2.2
2018-Jul-08 03:00N 37°46' W 122°40'1 1.2
2018-Jul-08 02:30N 37°46' W 122°40'1 1.1
2018-Jul-08 01:59N 37°46' W 122°40'3 5.6
2018-Jul-08 01:30N 37°46' W 122°37'3 5.2
2018-Jul-08 01:00N 37°47' W 122°34'1 1.6
2018-Jul-08 00:31N 37°47' W 122°35'4 7.0
2018-Jul-08 00:00N 37°46' W 122°39'0 0.4
2018-Jul-07 23:30N 37°46' W 122°39'1 1.0
2018-Jul-07 23:00N 37°46' W 122°40'0 0.8
2018-Jul-07 22:30N 37°46' W 122°40'1 1.2
2018-Jul-07 22:00N 37°46' W 122°39'1 1.9
2018-Jul-07 21:30N 37°45' W 122°39'0 0.9
2018-Jul-07 21:00N 37°45' W 122°39'1 2.3
2018-Jul-07 20:29N 37°46' W 122°41'1 2.4
2018-Jul-07 20:00N 37°45' W 122°41'1 1.2
2018-Jul-07 19:28N 37°45' W 122°41'4 8.1
2018-Jul-07 19:00N 37°46' W 122°37'510.6
2018-Jul-07 18:30N 37°48' W 122°31'611.4
2018-Jul-07 18:00N 37°48' W 122°24'0 0.5
2018-Jul-07 17:30N 37°48' W 122°24'0 0.0
2018-Jul-07 17:00N 37°48' W 122°24'0 0.0
2018-Jul-07 16:30N 37°48' W 122°24'0 0.0
2018-Jul-07 15:59N 37°48' W 122°24'0 0.0
2018-Jul-07 15:30N 37°48' W 122°24'0 0.0
2018-Jul-06 19:04N 37°48' W 122°24'0 0.0
2018-Jul-06 19:00N 37°48' W 122°24'4 7.1
2018-Jul-06 18:30N 37°45' W 122°21'4 7.2
2018-Jul-06 18:00N 37°48' W 122°24'0 0.0
2018-Jul-06 17:30N 37°48' W 122°24'  

Dump ship's entire track history